sensor_id;sensor_type;location;lat;lon;timestamp;temperature;humidity
67572;SHT31;54397;47.506;19.158;2023-04-06T00:00:43;4.20;56.05
67572;SHT31;54397;47.506;19.158;2023-04-06T00:04:06;3.96;56.26
67572;SHT31;54397;47.506;19.158;2023-04-06T00:07:28;4.34;55.90
67572;SHT31;54397;47.506;19.158;2023-04-06T00:10:53;4.18;56.55
67572;SHT31;54397;47.506;19.158;2023-04-06T00:14:17;3.87;57.68
67572;SHT31;54397;47.506;19.158;2023-04-06T00:17:38;3.58;58.97
67572;SHT31;54397;47.506;19.158;2023-04-06T00:21:00;3.85;58.70
67572;SHT31;54397;47.506;19.158;2023-04-06T00:24:24;3.93;57.31
67572;SHT31;54397;47.506;19.158;2023-04-06T00:27:47;3.72;57.99
67572;SHT31;54397;47.506;19.158;2023-04-06T00:31:11;3.39;59.48
67572;SHT31;54397;47.506;19.158;2023-04-06T00:34:35;3.66;58.48
67572;SHT31;54397;47.506;19.158;2023-04-06T00:37:59;3.46;59.33
67572;SHT31;54397;47.506;19.158;2023-04-06T00:41:21;3.36;59.92
67572;SHT31;54397;47.506;19.158;2023-04-06T00:44:45;3.61;59.29
67572;SHT31;54397;47.506;19.158;2023-04-06T00:48:12;3.72;58.80
67572;SHT31;54397;47.506;19.158;2023-04-06T00:51:34;3.36;59.51
67572;SHT31;54397;47.506;19.158;2023-04-06T00:54:58;3.43;58.98
67572;SHT31;54397;47.506;19.158;2023-04-06T00:58:20;3.45;59.20
67572;SHT31;54397;47.506;19.158;2023-04-06T01:01:46;3.73;58.97
67572;SHT31;54397;47.506;19.158;2023-04-06T01:05:09;3.41;60.40
67572;SHT31;54397;47.506;19.158;2023-04-06T01:08:31;3.22;58.66
67572;SHT31;54397;47.506;19.158;2023-04-06T01:11:53;3.41;59.56
67572;SHT31;54397;47.506;19.158;2023-04-06T01:15:17;3.30;60.79
67572;SHT31;54397;47.506;19.158;2023-04-06T01:18:38;3.25;61.24
67572;SHT31;54397;47.506;19.158;2023-04-06T01:22:03;2.89;62.29
67572;SHT31;54397;47.506;19.158;2023-04-06T01:25:27;2.77;62.03
67572;SHT31;54397;47.506;19.158;2023-04-06T01:28:49;3.21;61.38
67572;SHT31;54397;47.506;19.158;2023-04-06T01:32:13;3.25;60.92
67572;SHT31;54397;47.506;19.158;2023-04-06T01:35:35;3.25;59.08
67572;SHT31;54397;47.506;19.158;2023-04-06T01:38:57;2.94;60.11
67572;SHT31;54397;47.506;19.158;2023-04-06T01:42:19;2.96;59.41
67572;SHT31;54397;47.506;19.158;2023-04-06T01:45:41;2.76;60.13
67572;SHT31;54397;47.506;19.158;2023-04-06T01:49:07;2.79;59.86
67572;SHT31;54397;47.506;19.158;2023-04-06T01:52:29;3.10;58.72
67572;SHT31;54397;47.506;19.158;2023-04-06T01:55:54;3.20;58.95
67572;SHT31;54397;47.506;19.158;2023-04-06T01:59:20;3.15;58.00
67572;SHT31;54397;47.506;19.158;2023-04-06T02:02:41;3.07;60.15
67572;SHT31;54397;47.506;19.158;2023-04-06T02:06:03;3.20;59.38
67572;SHT31;54397;47.506;19.158;2023-04-06T02:09:25;2.96;60.25
67572;SHT31;54397;47.506;19.158;2023-04-06T02:12:49;2.75;60.45
67572;SHT31;54397;47.506;19.158;2023-04-06T02:16:13;2.59;60.35
67572;SHT31;54397;47.506;19.158;2023-04-06T02:19:36;2.60;60.49
67572;SHT31;54397;47.506;19.158;2023-04-06T02:22:58;2.65;60.19
67572;SHT31;54397;47.506;19.158;2023-04-06T02:26:21;2.86;59.37
67572;SHT31;54397;47.506;19.158;2023-04-06T02:29:42;2.83;59.50
67572;SHT31;54397;47.506;19.158;2023-04-06T02:33:04;2.60;60.66
67572;SHT31;54397;47.506;19.158;2023-04-06T02:36:28;2.67;59.76
67572;SHT31;54397;47.506;19.158;2023-04-06T02:39:50;2.55;60.36
67572;SHT31;54397;47.506;19.158;2023-04-06T02:43:12;2.48;60.98
67572;SHT31;54397;47.506;19.158;2023-04-06T02:46:36;2.41;61.22
67572;SHT31;54397;47.506;19.158;2023-04-06T02:50:00;2.42;61.35
67572;SHT31;54397;47.506;19.158;2023-04-06T02:53:22;2.52;61.01
67572;SHT31;54397;47.506;19.158;2023-04-06T02:56:47;2.62;60.40
67572;SHT31;54397;47.506;19.158;2023-04-06T03:00:09;2.96;61.30
67572;SHT31;54397;47.506;19.158;2023-04-06T03:03:31;2.93;60.70
67572;SHT31;54397;47.506;19.158;2023-04-06T03:06:53;2.96;59.82
67572;SHT31;54397;47.506;19.158;2023-04-06T03:10:15;3.08;59.07
67572;SHT31;54397;47.506;19.158;2023-04-06T03:13:40;3.04;60.51
67572;SHT31;54397;47.506;19.158;2023-04-06T03:17:01;3.21;60.45
67572;SHT31;54397;47.506;19.158;2023-04-06T03:20:23;3.08;60.63
67572;SHT31;54397;47.506;19.158;2023-04-06T03:23:50;2.94;61.47
67572;SHT31;54397;47.506;19.158;2023-04-06T03:27:12;3.01;60.58
67572;SHT31;54397;47.506;19.158;2023-04-06T03:30:34;2.79;61.81
67572;SHT31;54397;47.506;19.158;2023-04-06T03:33:56;2.50;62.51
67572;SHT31;54397;47.506;19.158;2023-04-06T03:37:18;2.72;61.62
67572;SHT31;54397;47.506;19.158;2023-04-06T03:40:42;2.83;62.47
67572;SHT31;54397;47.506;19.158;2023-04-06T03:44:05;2.80;62.31
67572;SHT31;54397;47.506;19.158;2023-04-06T03:47:26;2.75;62.89
67572;SHT31;54397;47.506;19.158;2023-04-06T03:50:51;3.07;61.64
67572;SHT31;54397;47.506;19.158;2023-04-06T03:54:12;2.53;63.87
67572;SHT31;54397;47.506;19.158;2023-04-06T03:57:34;2.63;63.05
67572;SHT31;54397;47.506;19.158;2023-04-06T04:00:55;2.52;63.04
67572;SHT31;54397;47.506;19.158;2023-04-06T04:04:17;2.44;63.11
67572;SHT31;54397;47.506;19.158;2023-04-06T04:07:41;2.29;63.68
67572;SHT31;54397;47.506;19.158;2023-04-06T04:11:03;2.18;64.62
67572;SHT31;54397;47.506;19.158;2023-04-06T04:14:28;2.11;65.24
67572;SHT31;54397;47.506;19.158;2023-04-06T04:17:52;2.08;65.06
67572;SHT31;54397;47.506;19.158;2023-04-06T04:21:17;2.31;64.12
67572;SHT31;54397;47.506;19.158;2023-04-06T04:24:38;2.15;64.31
67572;SHT31;54397;47.506;19.158;2023-04-06T04:28:00;2.39;63.65
67572;SHT31;54397;47.506;19.158;2023-04-06T04:31:24;2.25;64.55
67572;SHT31;54397;47.506;19.158;2023-04-06T04:34:48;2.41;64.03
67572;SHT31;54397;47.506;19.158;2023-04-06T04:38:14;2.36;64.24
67572;SHT31;54397;47.506;19.158;2023-04-06T04:41:36;2.20;64.92
67572;SHT31;54397;47.506;19.158;2023-04-06T04:45:00;2.10;65.33
67572;SHT31;54397;47.506;19.158;2023-04-06T04:48:22;2.01;65.81
67572;SHT31;54397;47.506;19.158;2023-04-06T04:51:44;2.03;65.78
67572;SHT31;54397;47.506;19.158;2023-04-06T04:55:05;2.17;65.11
67572;SHT31;54397;47.506;19.158;2023-04-06T04:58:29;2.56;64.06
67572;SHT31;54397;47.506;19.158;2023-04-06T05:01:51;2.52;64.73
67572;SHT31;54397;47.506;19.158;2023-04-06T05:05:16;2.93;64.00
67572;SHT31;54397;47.506;19.158;2023-04-06T05:08:37;3.11;63.24
67572;SHT31;54397;47.506;19.158;2023-04-06T05:11:59;3.32;62.80
67572;SHT31;54397;47.506;19.158;2023-04-06T05:15:21;3.55;61.57
67572;SHT31;54397;47.506;19.158;2023-04-06T05:18:47;3.70;61.13
67572;SHT31;54397;47.506;19.158;2023-04-06T05:22:09;3.87;60.98
67572;SHT31;54397;47.506;19.158;2023-04-06T05:25:35;3.63;61.78
67572;SHT31;54397;47.506;19.158;2023-04-06T05:28:57;3.89;59.79
67572;SHT31;54397;47.506;19.158;2023-04-06T05:32:19;3.76;57.31
67572;SHT31;54397;47.506;19.158;2023-04-06T05:35:45;3.97;56.49
67572;SHT31;54397;47.506;19.158;2023-04-06T05:39:07;3.85;56.70
67572;SHT31;54397;47.506;19.158;2023-04-06T05:42:39;4.04;56.33
67572;SHT31;54397;47.506;19.158;2023-04-06T05:46:02;4.17;55.70
67572;SHT31;54397;47.506;19.158;2023-04-06T05:49:24;4.18;55.04
67572;SHT31;54397;47.506;19.158;2023-04-06T05:52:46;4.40;53.18
67572;SHT31;54397;47.506;19.158;2023-04-06T05:56:09;4.68;52.19
67572;SHT31;54397;47.506;19.158;2023-04-06T05:59:31;4.82;52.65
67572;SHT31;54397;47.506;19.158;2023-04-06T06:02:53;4.89;53.27
67572;SHT31;54397;47.506;19.158;2023-04-06T06:06:15;4.72;52.89
67572;SHT31;54397;47.506;19.158;2023-04-06T06:09:36;4.66;51.00
67572;SHT31;54397;47.506;19.158;2023-04-06T06:12:58;5.01;50.35
67572;SHT31;54397;47.506;19.158;2023-04-06T06:16:20;4.31;51.14
67572;SHT31;54397;47.506;19.158;2023-04-06T06:19:44;4.82;51.99
67572;SHT31;54397;47.506;19.158;2023-04-06T06:23:06;5.24;50.59
67572;SHT31;54397;47.506;19.158;2023-04-06T06:26:29;5.66;49.18
67572;SHT31;54397;47.506;19.158;2023-04-06T06:29:54;4.42;50.55
67572;SHT31;54397;47.506;19.158;2023-04-06T06:33:16;4.52;51.73
67572;SHT31;54397;47.506;19.158;2023-04-06T06:36:43;4.65;51.11
67572;SHT31;54397;47.506;19.158;2023-04-06T06:40:11;4.90;51.83
67572;SHT31;54397;47.506;19.158;2023-04-06T06:43:37;5.43;49.29
67572;SHT31;54397;47.506;19.158;2023-04-06T06:46:59;5.37;49.47
67572;SHT31;54397;47.506;19.158;2023-04-06T06:50:23;5.51;49.60
67572;SHT31;54397;47.506;19.158;2023-04-06T06:53:47;5.09;48.95
67572;SHT31;54397;47.506;19.158;2023-04-06T06:57:09;4.85;50.30
67572;SHT31;54397;47.506;19.158;2023-04-06T07:00:33;4.89;49.49
67572;SHT31;54397;47.506;19.158;2023-04-06T07:03:57;5.48;49.62
67572;SHT31;54397;47.506;19.158;2023-04-06T07:07:19;5.98;47.56
67572;SHT31;54397;47.506;19.158;2023-04-06T07:10:43;6.37;47.70
67572;SHT31;54397;47.506;19.158;2023-04-06T07:14:07;6.21;47.54
67572;SHT31;54397;47.506;19.158;2023-04-06T07:17:29;6.41;53.46
67572;SHT31;54397;47.506;19.158;2023-04-06T07:20:51;7.60;60.13
67572;SHT31;54397;47.506;19.158;2023-04-06T07:24:13;7.92;52.01
67572;SHT31;54397;47.506;19.158;2023-04-06T07:27:35;8.02;49.86
67572;SHT31;54397;47.506;19.158;2023-04-06T07:30:57;8.13;52.77
67572;SHT31;54397;47.506;19.158;2023-04-06T07:34:21;7.19;46.23
67572;SHT31;54397;47.506;19.158;2023-04-06T07:37:45;7.85;44.79
67572;SHT31;54397;47.506;19.158;2023-04-06T07:41:11;8.02;43.74
67572;SHT31;54397;47.506;19.158;2023-04-06T07:44:33;7.86;44.02
67572;SHT31;54397;47.506;19.158;2023-04-06T07:47:55;6.93;44.00
67572;SHT31;54397;47.506;19.158;2023-04-06T07:51:17;6.72;44.55
67572;SHT31;54397;47.506;19.158;2023-04-06T07:54:42;7.05;44.12
67572;SHT31;54397;47.506;19.158;2023-04-06T07:58:04;7.34;43.15
67572;SHT31;54397;47.506;19.158;2023-04-06T08:01:29;7.89;43.13
67572;SHT31;54397;47.506;19.158;2023-04-06T08:04:54;8.14;41.91
67572;SHT31;54397;47.506;19.158;2023-04-06T08:08:16;7.82;40.40
67572;SHT31;54397;47.506;19.158;2023-04-06T08:11:37;7.50;42.12
67572;SHT31;54397;47.506;19.158;2023-04-06T08:15:02;7.57;42.07
67572;SHT31;54397;47.506;19.158;2023-04-06T08:18:25;6.55;47.78
67572;SHT31;54397;47.506;19.158;2023-04-06T08:21:47;7.75;51.88
67572;SHT31;54397;47.506;19.158;2023-04-06T08:25:08;7.37;49.38
67572;SHT31;54397;47.506;19.158;2023-04-06T08:28:30;8.34;48.75
67572;SHT31;54397;47.506;19.158;2023-04-06T08:31:57;9.15;46.09
67572;SHT31;54397;47.506;19.158;2023-04-06T08:35:21;9.37;45.98
67572;SHT31;54397;47.506;19.158;2023-04-06T08:38:42;9.26;39.26
67572;SHT31;54397;47.506;19.158;2023-04-06T08:42:12;9.51;39.13
67572;SHT31;54397;47.506;19.158;2023-04-06T08:45:34;9.81;38.78
67572;SHT31;54397;47.506;19.158;2023-04-06T08:49:03;9.51;36.62
67572;SHT31;54397;47.506;19.158;2023-04-06T08:52:27;9.14;37.25
67572;SHT31;54397;47.506;19.158;2023-04-06T08:55:50;8.98;38.43
67572;SHT31;54397;47.506;19.158;2023-04-06T08:59:12;9.33;37.82
67572;SHT31;54397;47.506;19.158;2023-04-06T09:02:38;9.08;37.49
67572;SHT31;54397;47.506;19.158;2023-04-06T09:06:00;8.63;39.44
67572;SHT31;54397;47.506;19.158;2023-04-06T09:09:22;9.43;38.15
67572;SHT31;54397;47.506;19.158;2023-04-06T09:12:51;9.91;36.37
67572;SHT31;54397;47.506;19.158;2023-04-06T09:16:13;10.14;35.32
67572;SHT31;54397;47.506;19.158;2023-04-06T09:19:47;10.14;35.51
67572;SHT31;54397;47.506;19.158;2023-04-06T09:23:17;10.04;35.44
67572;SHT31;54397;47.506;19.158;2023-04-06T09:26:46;9.01;38.02
67572;SHT31;54397;47.506;19.158;2023-04-06T09:30:11;9.46;36.79
67572;SHT31;54397;47.506;19.158;2023-04-06T09:33:41;9.50;38.38
67572;SHT31;54397;47.506;19.158;2023-04-06T09:37:16;9.48;37.79
67572;SHT31;54397;47.506;19.158;2023-04-06T09:40:48;9.56;37.72
67572;SHT31;54397;47.506;19.158;2023-04-06T09:44:21;10.09;43.83
67572;SHT31;54397;47.506;19.158;2023-04-06T09:47:45;10.48;39.75
67572;SHT31;54397;47.506;19.158;2023-04-06T09:51:11;10.91;41.79
67572;SHT31;54397;47.506;19.158;2023-04-06T09:54:36;11.40;39.24
67572;SHT31;54397;47.506;19.158;2023-04-06T09:58:09;11.91;40.27
67572;SHT31;54397;47.506;19.158;2023-04-06T10:01:35;12.31;40.63
67572;SHT31;54397;47.506;19.158;2023-04-06T10:05:09;12.69;40.58
67572;SHT31;54397;47.506;19.158;2023-04-06T10:08:38;11.63;35.15
67572;SHT31;54397;47.506;19.158;2023-04-06T10:12:10;11.59;34.00
67572;SHT31;54397;47.506;19.158;2023-04-06T10:15:33;10.39;35.96
67572;SHT31;54397;47.506;19.158;2023-04-06T10:19:16;10.05;36.27
67572;SHT31;54397;47.506;19.158;2023-04-06T10:23:02;9.32;38.70
67572;SHT31;54397;47.506;19.158;2023-04-06T10:26:28;9.11;37.10
67572;SHT31;54397;47.506;19.158;2023-04-06T10:29:52;9.77;37.74
67572;SHT31;54397;47.506;19.158;2023-04-06T10:33:15;9.88;37.12
67572;SHT31;54397;47.506;19.158;2023-04-06T10:36:37;9.95;37.84
67572;SHT31;54397;47.506;19.158;2023-04-06T10:39:59;10.14;36.16
67572;SHT31;54397;47.506;19.158;2023-04-06T10:43:22;10.22;37.49
67572;SHT31;54397;47.506;19.158;2023-04-06T10:46:57;10.49;37.55
67572;SHT31;54397;47.506;19.158;2023-04-06T10:50:22;10.74;36.79
67572;SHT31;54397;47.506;19.158;2023-04-06T10:53:45;10.85;36.07
67572;SHT31;54397;47.506;19.158;2023-04-06T10:57:15;10.80;36.13
67572;SHT31;54397;47.506;19.158;2023-04-06T11:00:44;11.04;35.54
67572;SHT31;54397;47.506;19.158;2023-04-06T11:04:07;11.00;36.23
67572;SHT31;54397;47.506;19.158;2023-04-06T11:07:31;9.84;37.45
67572;SHT31;54397;47.506;19.158;2023-04-06T11:11:07;10.32;36.73
67572;SHT31;54397;47.506;19.158;2023-04-06T11:14:29;9.30;36.00
67572;SHT31;54397;47.506;19.158;2023-04-06T11:17:51;9.80;37.00
67572;SHT31;54397;47.506;19.158;2023-04-06T11:21:15;9.71;36.39
67572;SHT31;54397;47.506;19.158;2023-04-06T11:24:39;10.29;36.09
67572;SHT31;54397;47.506;19.158;2023-04-06T11:28:03;10.80;36.06
67572;SHT31;54397;47.506;19.158;2023-04-06T11:31:27;11.39;43.26
67572;SHT31;54397;47.506;19.158;2023-04-06T11:34:51;12.17;42.95
67572;SHT31;54397;47.506;19.158;2023-04-06T11:38:18;12.56;40.54
67572;SHT31;54397;47.506;19.158;2023-04-06T11:41:40;12.58;34.58
67572;SHT31;54397;47.506;19.158;2023-04-06T11:45:07;12.45;35.27
67572;SHT31;54397;47.506;19.158;2023-04-06T11:48:30;11.07;43.08
67572;SHT31;54397;47.506;19.158;2023-04-06T11:51:55;11.18;33.85
67572;SHT31;54397;47.506;19.158;2023-04-06T11:55:18;10.90;34.60
67572;SHT31;54397;47.506;19.158;2023-04-06T11:58:40;10.81;35.22
67572;SHT31;54397;47.506;19.158;2023-04-06T12:02:02;10.88;35.17
67572;SHT31;54397;47.506;19.158;2023-04-06T12:05:24;10.87;35.42
67572;SHT31;54397;47.506;19.158;2023-04-06T12:08:46;10.81;35.35
67572;SHT31;54397;47.506;19.158;2023-04-06T12:12:11;10.77;35.07
67572;SHT31;54397;47.506;19.158;2023-04-06T12:15:34;10.71;35.35
67572;SHT31;54397;47.506;19.158;2023-04-06T12:18:56;10.87;34.75
67572;SHT31;54397;47.506;19.158;2023-04-06T12:22:21;10.84;33.97
67572;SHT31;54397;47.506;19.158;2023-04-06T12:25:48;10.93;34.10
67572;SHT31;54397;47.506;19.158;2023-04-06T12:29:10;10.97;34.99
67572;SHT31;54397;47.506;19.158;2023-04-06T12:32:32;11.01;34.00
67572;SHT31;54397;47.506;19.158;2023-04-06T12:35:56;11.11;33.84
67572;SHT31;54397;47.506;19.158;2023-04-06T12:39:18;11.06;33.39
67572;SHT31;54397;47.506;19.158;2023-04-06T12:42:42;11.08;34.41
67572;SHT31;54397;47.506;19.158;2023-04-06T12:46:06;11.17;33.37
67572;SHT31;54397;47.506;19.158;2023-04-06T12:49:30;11.17;41.94
67572;SHT31;54397;47.506;19.158;2023-04-06T12:52:54;11.48;41.96
67572;SHT31;54397;47.506;19.158;2023-04-06T12:56:19;11.87;40.64
67572;SHT31;54397;47.506;19.158;2023-04-06T12:59:45;12.28;40.49
67572;SHT31;54397;47.506;19.158;2023-04-06T13:03:08;12.38;37.43
67572;SHT31;54397;47.506;19.158;2023-04-06T13:06:32;12.37;40.34
67572;SHT31;54397;47.506;19.158;2023-04-06T13:09:55;12.49;37.90
67572;SHT31;54397;47.506;19.158;2023-04-06T13:13:24;11.21;36.22
67572;SHT31;54397;47.506;19.158;2023-04-06T13:16:46;11.28;36.60
67572;SHT31;54397;47.506;19.158;2023-04-06T13:20:10;11.32;36.75
67572;SHT31;54397;47.506;19.158;2023-04-06T13:23:34;11.15;37.80
67572;SHT31;54397;47.506;19.158;2023-04-06T13:26:56;11.00;37.97
67572;SHT31;54397;47.506;19.158;2023-04-06T13:30:18;10.76;38.32
67572;SHT31;54397;47.506;19.158;2023-04-06T13:33:45;10.67;39.43
67572;SHT31;54397;47.506;19.158;2023-04-06T13:37:09;10.91;39.59
67572;SHT31;54397;47.506;19.158;2023-04-06T13:40:32;10.98;38.52
67572;SHT31;54397;47.506;19.158;2023-04-06T13:43:56;10.87;38.92
67572;SHT31;54397;47.506;19.158;2023-04-06T13:47:19;10.81;39.69
67572;SHT31;54397;47.506;19.158;2023-04-06T13:50:44;10.96;39.82
67572;SHT31;54397;47.506;19.158;2023-04-06T13:54:10;10.84;40.39
67572;SHT31;54397;47.506;19.158;2023-04-06T13:57:36;10.48;40.25
67572;SHT31;54397;47.506;19.158;2023-04-06T14:01:06;10.70;39.74
67572;SHT31;54397;47.506;19.158;2023-04-06T14:04:29;9.78;40.62
67572;SHT31;54397;47.506;19.158;2023-04-06T14:07:51;9.11;40.69
67572;SHT31;54397;47.506;19.158;2023-04-06T14:11:13;9.64;41.84
67572;SHT31;54397;47.506;19.158;2023-04-06T14:14:35;9.74;39.43
67572;SHT31;54397;47.506;19.158;2023-04-06T14:17:59;9.67;39.63
67572;SHT31;54397;47.506;19.158;2023-04-06T14:21:24;9.98;40.51
67572;SHT31;54397;47.506;19.158;2023-04-06T14:24:49;10.21;40.46
67572;SHT31;54397;47.506;19.158;2023-04-06T14:28:10;9.88;38.88
67572;SHT31;54397;47.506;19.158;2023-04-06T14:31:32;9.99;38.57
67572;SHT31;54397;47.506;19.158;2023-04-06T14:34:56;9.91;39.50
67572;SHT31;54397;47.506;19.158;2023-04-06T14:38:20;9.83;40.25
67572;SHT31;54397;47.506;19.158;2023-04-06T14:41:42;10.05;42.08
67572;SHT31;54397;47.506;19.158;2023-04-06T14:45:04;10.41;48.50
67572;SHT31;54397;47.506;19.158;2023-04-06T14:48:27;10.67;45.05
67572;SHT31;54397;47.506;19.158;2023-04-06T14:51:49;11.08;47.43
67572;SHT31;54397;47.506;19.158;2023-04-06T14:55:16;11.10;41.39
67572;SHT31;54397;47.506;19.158;2023-04-06T14:58:37;10.85;41.42
67572;SHT31;54397;47.506;19.158;2023-04-06T15:02:01;10.45;41.86
67572;SHT31;54397;47.506;19.158;2023-04-06T15:05:23;10.09;42.93
67572;SHT31;54397;47.506;19.158;2023-04-06T15:08:49;9.99;43.30
67572;SHT31;54397;47.506;19.158;2023-04-06T15:12:14;9.47;44.44
67572;SHT31;54397;47.506;19.158;2023-04-06T15:15:38;9.09;45.03
67572;SHT31;54397;47.506;19.158;2023-04-06T15:19:00;8.91;46.21
67572;SHT31;54397;47.506;19.158;2023-04-06T15:22:22;8.64;48.56
67572;SHT31;54397;47.506;19.158;2023-04-06T15:25:44;8.70;48.90
67572;SHT31;54397;47.506;19.158;2023-04-06T15:29:06;8.78;49.50
67572;SHT31;54397;47.506;19.158;2023-04-06T15:32:32;8.33;50.91
67572;SHT31;54397;47.506;19.158;2023-04-06T15:35:56;8.43;51.28
67572;SHT31;54397;47.506;19.158;2023-04-06T15:39:20;8.09;51.59
67572;SHT31;54397;47.506;19.158;2023-04-06T15:42:44;7.86;52.88
67572;SHT31;54397;47.506;19.158;2023-04-06T15:46:08;8.43;58.17
67572;SHT31;54397;47.506;19.158;2023-04-06T15:49:35;8.89;60.45
67572;SHT31;54397;47.506;19.158;2023-04-06T15:52:57;9.12;54.11
67572;SHT31;54397;47.506;19.158;2023-04-06T15:56:21;9.14;55.08
67572;SHT31;54397;47.506;19.158;2023-04-06T15:59:43;9.32;56.93
67572;SHT31;54397;47.506;19.158;2023-04-06T16:03:05;9.84;56.97
67572;SHT31;54397;47.506;19.158;2023-04-06T16:06:27;10.32;53.95
67572;SHT31;54397;47.506;19.158;2023-04-06T16:09:51;10.08;48.60
67572;SHT31;54397;47.506;19.158;2023-04-06T16:13:15;9.75;49.44
67572;SHT31;54397;47.506;19.158;2023-04-06T16:16:37;9.33;50.57
67572;SHT31;54397;47.506;19.158;2023-04-06T16:20:01;9.20;50.78
67572;SHT31;54397;47.506;19.158;2023-04-06T16:23:28;9.02;50.92
67572;SHT31;54397;47.506;19.158;2023-04-06T16:26:50;8.89;52.09
67572;SHT31;54397;47.506;19.158;2023-04-06T16:30:13;8.97;52.92
67572;SHT31;54397;47.506;19.158;2023-04-06T16:33:35;8.99;52.92
67572;SHT31;54397;47.506;19.158;2023-04-06T16:36:56;8.89;52.75
67572;SHT31;54397;47.506;19.158;2023-04-06T16:40:18;8.72;53.16
67572;SHT31;54397;47.506;19.158;2023-04-06T16:43:40;8.63;53.33
67572;SHT31;54397;47.506;19.158;2023-04-06T16:47:04;8.53;53.60
67572;SHT31;54397;47.506;19.158;2023-04-06T16:50:28;8.46;54.50
67572;SHT31;54397;47.506;19.158;2023-04-06T16:53:50;8.34;55.35
67572;SHT31;54397;47.506;19.158;2023-04-06T16:57:14;8.32;56.25
67572;SHT31;54397;47.506;19.158;2023-04-06T17:00:36;8.54;56.88
67572;SHT31;54397;47.506;19.158;2023-04-06T17:03:58;8.53;58.76
67572;SHT31;54397;47.506;19.158;2023-04-06T17:07:20;8.57;60.77
67572;SHT31;54397;47.506;19.158;2023-04-06T17:10:48;8.09;63.75
67572;SHT31;54397;47.506;19.158;2023-04-06T17:14:23;7.95;64.55
67572;SHT31;54397;47.506;19.158;2023-04-06T17:17:45;7.24;66.81
67572;SHT31;54397;47.506;19.158;2023-04-06T17:21:08;7.53;68.46
67572;SHT31;54397;47.506;19.158;2023-04-06T17:24:37;7.74;69.12
67572;SHT31;54397;47.506;19.158;2023-04-06T17:28:01;7.96;77.84
67572;SHT31;54397;47.506;19.158;2023-04-06T17:31:26;8.34;75.25
67572;SHT31;54397;47.506;19.158;2023-04-06T17:34:50;8.56;74.25
67572;SHT31;54397;47.506;19.158;2023-04-06T17:38:11;8.72;73.77
67572;SHT31;54397;47.506;19.158;2023-04-06T17:41:33;8.81;72.51
67572;SHT31;54397;47.506;19.158;2023-04-06T17:44:57;8.65;67.11
67572;SHT31;54397;47.506;19.158;2023-04-06T17:48:22;7.47;67.62
67572;SHT31;54397;47.506;19.158;2023-04-06T17:51:46;7.34;68.63
67572;SHT31;54397;47.506;19.158;2023-04-06T17:55:12;7.43;69.20
67572;SHT31;54397;47.506;19.158;2023-04-06T17:58:34;7.30;69.69
67572;SHT31;54397;47.506;19.158;2023-04-06T18:01:56;7.37;70.65
67572;SHT31;54397;47.506;19.158;2023-04-06T18:05:19;7.27;71.42
67572;SHT31;54397;47.506;19.158;2023-04-06T18:08:41;7.20;71.80
67572;SHT31;54397;47.506;19.158;2023-04-06T18:12:03;7.12;71.44
67572;SHT31;54397;47.506;19.158;2023-04-06T18:15:25;6.91;72.09
67572;SHT31;54397;47.506;19.158;2023-04-06T18:18:49;6.86;73.48
67572;SHT31;54397;47.506;19.158;2023-04-06T18:22:11;6.98;73.12
67572;SHT31;54397;47.506;19.158;2023-04-06T18:25:37;6.95;72.97
67572;SHT31;54397;47.506;19.158;2023-04-06T18:29:01;7.12;73.03
67572;SHT31;54397;47.506;19.158;2023-04-06T18:32:23;7.09;72.36
67572;SHT31;54397;47.506;19.158;2023-04-06T18:35:44;7.09;71.76
67572;SHT31;54397;47.506;19.158;2023-04-06T18:39:08;6.98;71.62
67572;SHT31;54397;47.506;19.158;2023-04-06T18:42:37;6.92;72.71
67572;SHT31;54397;47.506;19.158;2023-04-06T18:45:59;7.02;72.43
67572;SHT31;54397;47.506;19.158;2023-04-06T18:49:21;6.89;72.76
67572;SHT31;54397;47.506;19.158;2023-04-06T18:52:42;6.95;83.38
67572;SHT31;54397;47.506;19.158;2023-04-06T18:56:14;7.17;80.77
67572;SHT31;54397;47.506;19.158;2023-04-06T18:59:39;7.50;79.79
67572;SHT31;54397;47.506;19.158;2023-04-06T19:03:01;7.64;77.79
67572;SHT31;54397;47.506;19.158;2023-04-06T19:06:25;7.86;78.01
67572;SHT31;54397;47.506;19.158;2023-04-06T19:09:52;7.82;76.13
67572;SHT31;54397;47.506;19.158;2023-04-06T19:13:14;7.82;77.82
67572;SHT31;54397;47.506;19.158;2023-04-06T19:16:42;7.60;72.65
67572;SHT31;54397;47.506;19.158;2023-04-06T19:20:12;7.23;72.26
67572;SHT31;54397;47.506;19.158;2023-04-06T19:23:37;6.92;73.72
67572;SHT31;54397;47.506;19.158;2023-04-06T19:27:01;6.63;75.73
67572;SHT31;54397;47.506;19.158;2023-04-06T19:30:23;6.77;77.19
67572;SHT31;54397;47.506;19.158;2023-04-06T19:33:47;6.48;76.60
67572;SHT31;54397;47.506;19.158;2023-04-06T19:37:14;6.29;77.97
67572;SHT31;54397;47.506;19.158;2023-04-06T19:40:36;6.40;76.79
67572;SHT31;54397;47.506;19.158;2023-04-06T19:43:58;6.02;76.26
67572;SHT31;54397;47.506;19.158;2023-04-06T19:47:20;6.09;76.56
67572;SHT31;54397;47.506;19.158;2023-04-06T19:50:42;6.27;76.18
67572;SHT31;54397;47.506;19.158;2023-04-06T19:54:05;6.14;77.90
67572;SHT31;54397;47.506;19.158;2023-04-06T19:57:30;6.10;77.70
67572;SHT31;54397;47.506;19.158;2023-04-06T20:00:51;6.06;77.77
67572;SHT31;54397;47.506;19.158;2023-04-06T20:04:16;5.96;78.12
67572;SHT31;54397;47.506;19.158;2023-04-06T20:07:40;5.99;76.84
67572;SHT31;54397;47.506;19.158;2023-04-06T20:11:05;5.90;77.38
67572;SHT31;54397;47.506;19.158;2023-04-06T20:14:34;6.02;78.27
67572;SHT31;54397;47.506;19.158;2023-04-06T20:17:58;6.13;77.64
67572;SHT31;54397;47.506;19.158;2023-04-06T20:21:25;6.05;78.07
67572;SHT31;54397;47.506;19.158;2023-04-06T20:24:51;6.21;85.17
67572;SHT31;54397;47.506;19.158;2023-04-06T20:28:17;6.75;84.28
67572;SHT31;54397;47.506;19.158;2023-04-06T20:31:39;7.03;82.59
67572;SHT31;54397;47.506;19.158;2023-04-06T20:35:01;7.19;75.37
67572;SHT31;54397;47.506;19.158;2023-04-06T20:38:29;6.92;74.17
67572;SHT31;54397;47.506;19.158;2023-04-06T20:41:56;6.74;74.29
67572;SHT31;54397;47.506;19.158;2023-04-06T20:45:19;6.74;73.42
67572;SHT31;54397;47.506;19.158;2023-04-06T20:48:40;6.48;74.95
67572;SHT31;54397;47.506;19.158;2023-04-06T20:52:02;6.34;74.90
67572;SHT31;54397;47.506;19.158;2023-04-06T20:55:24;6.27;75.29
67572;SHT31;54397;47.506;19.158;2023-04-06T20:58:46;6.40;74.84
67572;SHT31;54397;47.506;19.158;2023-04-06T21:02:10;6.29;75.43
67572;SHT31;54397;47.506;19.158;2023-04-06T21:05:32;6.16;75.28
67572;SHT31;54397;47.506;19.158;2023-04-06T21:08:57;6.23;75.12
67572;SHT31;54397;47.506;19.158;2023-04-06T21:12:19;6.09;75.97
67572;SHT31;54397;47.506;19.158;2023-04-06T21:15:43;6.05;74.98
67572;SHT31;54397;47.506;19.158;2023-04-06T21:19:05;5.96;75.83
67572;SHT31;54397;47.506;19.158;2023-04-06T21:22:26;5.83;75.65